createdAt,value
2022-12-25T00:02:01.677Z,10.05
2022-12-25T00:04:29.687Z,15.65
2022-12-25T00:06:59.349Z,11.65
2022-12-25T00:09:27.307Z,11.82
2022-12-25T00:11:55.100Z,9.80
2022-12-25T00:14:24.398Z,8.65
2022-12-25T00:16:52.123Z,12.25
2022-12-25T00:19:20.263Z,9.93
2022-12-25T00:21:48.116Z,16.30
2022-12-25T00:24:15.888Z,11.27
2022-12-25T00:26:43.992Z,20.60
2022-12-25T00:29:13.259Z,19.92
2022-12-25T00:31:42.444Z,16.40
2022-12-25T00:34:10.304Z,13.38
2022-12-25T00:36:41.861Z,18.27
2022-12-25T00:39:10.512Z,9.47
2022-12-25T09:32:40.499Z,27.35
2022-12-25T09:35:08.610Z,38.20
2022-12-25T09:37:36.844Z,43.47
2022-12-25T09:40:05.306Z,31.38
2022-12-25T09:42:34.497Z,23.83
2022-12-25T09:45:05.624Z,23.83
2022-12-25T09:47:35.782Z,24.95
2022-12-25T09:50:08.494Z,20.65
2022-12-25T09:52:38.847Z,16.30
2022-12-25T09:55:14.816Z,23.42
2022-12-25T09:57:46.228Z,16.55
2022-12-25T10:00:15.112Z,14.80
2022-12-25T10:02:55.695Z,15.27
2022-12-25T10:05:35.592Z,16.63
2022-12-25T10:08:07.735Z,17.45
2022-12-25T10:10:50.557Z,15.20
2022-12-25T10:13:36.023Z,16.75
2022-12-25T10:16:08.669Z,17.17
2022-12-25T10:18:44.623Z,13.05
2022-12-25T10:21:15.992Z,17.90
2022-12-25T10:23:45.604Z,9.35
2022-12-25T10:26:15.984Z,15.52
2022-12-25T10:28:45.078Z,20.13
2022-12-25T10:31:19.528Z,10.98
2022-12-25T10:33:48.025Z,13.00
2022-12-25T10:36:19.058Z,14.45
2022-12-25T10:38:47.514Z,11.98
2022-12-25T10:41:19.970Z,13.23
2022-12-25T10:43:49.940Z,9.93
2022-12-25T10:46:18.345Z,11.43
2022-12-25T10:48:48.639Z,15.25
2022-12-25T10:51:27.997Z,12.63
2022-12-25T10:53:55.845Z,14.00
2022-12-25T10:56:23.585Z,13.73
2022-12-25T10:58:51.713Z,11.77
2022-12-25T11:01:19.661Z,14.70
2022-12-25T11:03:52.060Z,11.57
2022-12-25T11:06:22.712Z,10.43
2022-12-25T11:08:54.556Z,13.32
2022-12-25T11:11:22.872Z,10.60
2022-12-25T11:13:51.545Z,14.52
2022-12-25T11:16:28.025Z,13.07
2022-12-25T11:18:57.447Z,19.63
2022-12-25T11:21:25.927Z,11.90
2022-12-25T11:23:59.405Z,19.35
2022-12-25T11:26:27.895Z,13.07
2022-12-25T11:28:57.002Z,22.15
2022-12-25T11:31:37.571Z,32.40
2022-12-25T11:34:07.258Z,25.75
2022-12-25T11:36:42.867Z,16.02
2022-12-25T11:39:15.044Z,15.77
2022-12-25T11:41:44.193Z,20.70
2022-12-25T11:44:19.119Z,21.13
2022-12-25T11:46:50.486Z,18.63
2022-12-25T11:49:21.289Z,14.90
2022-12-25T11:51:52.508Z,15.50
2022-12-25T11:54:26.350Z,15.98
2022-12-25T11:56:54.352Z,19.30
2022-12-25T11:59:24.071Z,19.50
2022-12-25T12:01:54.161Z,14.90
2022-12-25T12:04:29.632Z,19.25
2022-12-25T12:07:01.833Z,19.70
2022-12-25T12:09:37.546Z,16.63
2022-12-25T12:12:09.940Z,16.88
2022-12-25T12:14:45.145Z,11.25
2022-12-25T12:17:13.709Z,12.73
2022-12-25T12:19:41.514Z,20.88
2022-12-25T12:22:16.569Z,11.15
2022-12-25T12:24:45.797Z,9.75
2022-12-25T12:27:22.199Z,9.40
2022-12-25T12:29:50.896Z,12.43
2022-12-25T12:32:30.150Z,9.88
2022-12-25T12:34:58.291Z,13.50
2022-12-25T12:37:28.851Z,11.70
2022-12-25T12:40:01.233Z,12.10
2022-12-25T12:42:30.224Z,7.60
2022-12-25T12:44:59.161Z,11.95
2022-12-25T12:47:28.844Z,9.95
2022-12-25T12:49:58.384Z,9.45
2022-12-25T12:52:27.292Z,7.50
2022-12-25T12:54:57.879Z,11.10
2022-12-25T12:57:29.429Z,10.27
2022-12-25T12:59:59.995Z,13.82
2022-12-25T13:03:04.511Z,9.13
2022-12-25T13:05:38.341Z,8.82
2022-12-25T13:08:13.173Z,8.15
2022-12-25T13:10:44.953Z,11.35
2022-12-25T13:13:16.189Z,8.68
2022-12-25T13:15:47.303Z,11.85
2022-12-25T13:18:15.428Z,7.25
2022-12-25T13:20:47.213Z,11.35
2022-12-25T13:23:16.465Z,8.77
2022-12-25T13:25:52.979Z,14.48
2022-12-25T13:28:27.528Z,22.77
2022-12-25T13:31:04.002Z,29.10
2022-12-25T13:33:32.633Z,32.15
2022-12-25T13:36:08.473Z,23.20
2022-12-25T13:42:34.614Z,16.73
2022-12-25T13:45:45.380Z,15.73
2022-12-25T13:48:16.297Z,13.00
2022-12-25T13:50:49.247Z,15.30
2022-12-25T13:53:17.986Z,8.75
2022-12-25T13:55:48.907Z,16.67
2022-12-25T13:58:19.693Z,15.88
2022-12-25T14:00:50.320Z,8.07
2022-12-25T14:03:20.428Z,11.23
2022-12-25T14:05:55.990Z,14.82
2022-12-25T14:08:25.405Z,23.30
2022-12-25T14:10:53.854Z,13.80
2022-12-25T14:13:23.425Z,18.27
2022-12-25T14:15:58.606Z,15.65
2022-12-25T14:18:26.933Z,15.52
2022-12-25T14:20:57.610Z,14.63
2022-12-25T14:23:25.583Z,20.42
2022-12-25T14:25:53.367Z,12.13
2022-12-25T14:28:23.019Z,10.80
2022-12-25T14:30:50.781Z,11.60
2022-12-25T14:33:21.395Z,11.75
2022-12-25T14:35:49.522Z,10.23
2022-12-25T14:38:21.864Z,13.45
2022-12-25T14:40:58.758Z,12.02
2022-12-25T14:43:27.744Z,10.25
2022-12-25T14:45:56.698Z,11.10
2022-12-25T14:48:27.233Z,10.77
2022-12-25T14:50:58.868Z,9.20
2022-12-25T14:53:32.018Z,8.60
2022-12-25T14:58:28.593Z,11.52
2022-12-25T15:00:57.669Z,16.05
2022-12-25T15:03:28.397Z,12.75
2022-12-25T15:06:01.271Z,9.57
2022-12-25T15:08:30.071Z,7.68
2022-12-25T15:11:01.218Z,5.57
2022-12-25T15:13:30.507Z,6.65
2022-12-25T15:15:59.748Z,5.93
2022-12-25T15:18:31.734Z,6.25
2022-12-25T15:20:59.726Z,6.60
2022-12-25T15:23:27.797Z,7.28
2022-12-25T15:25:55.534Z,7.53
2022-12-25T15:28:23.571Z,12.20
2022-12-25T15:30:51.391Z,11.18
2022-12-25T15:33:19.721Z,6.50
2022-12-25T15:35:49.071Z,4.95
2022-12-25T15:38:16.856Z,4.60
2022-12-25T15:40:44.613Z,7.38
2022-12-25T15:43:38.996Z,7.13
2022-12-25T15:46:01.761Z,6.22
2022-12-25T15:48:29.705Z,6.07
2022-12-25T15:50:58.745Z,4.68
2022-12-25T15:53:27.166Z,7.38
2022-12-25T15:55:54.936Z,5.45
2022-12-25T15:58:22.685Z,6.57
2022-12-25T16:00:51.456Z,5.53
2022-12-25T16:03:19.203Z,4.70
2022-12-25T16:05:47.243Z,10.02
2022-12-25T16:08:16.420Z,6.65
2022-12-25T16:10:44.228Z,4.80
2022-12-25T16:13:12.269Z,4.35
2022-12-25T16:15:40.068Z,4.20
2022-12-25T16:18:07.975Z,6.55
2022-12-25T16:20:35.797Z,5.38
2022-12-25T16:23:03.561Z,8.18
2022-12-25T16:25:32.686Z,4.40
2022-12-25T16:28:03.310Z,4.50
2022-12-25T16:30:31.233Z,5.35
2022-12-25T16:32:58.997Z,4.82
2022-12-25T16:35:27.013Z,6.25
2022-12-25T16:37:54.865Z,5.55
2022-12-25T16:40:22.575Z,6.90
2022-12-25T16:42:51.676Z,6.35
2022-12-25T16:45:19.447Z,5.13
2022-12-25T16:47:47.254Z,5.70
2022-12-25T16:50:15.048Z,5.22
2022-12-25T16:52:42.862Z,6.45
2022-12-25T16:55:10.945Z,6.13
2022-12-25T16:57:38.673Z,6.78
2022-12-25T17:00:08.919Z,5.90
2022-12-25T17:02:36.871Z,5.78
2022-12-25T17:05:04.930Z,4.95
2022-12-25T17:07:32.885Z,6.63
2022-12-25T17:10:01.068Z,7.18
2022-12-25T17:12:28.887Z,5.03
2022-12-25T17:14:59.293Z,8.55
2022-12-25T17:17:28.359Z,5.15
2022-12-25T17:19:56.189Z,4.65
2022-12-25T17:22:24.142Z,5.28
2022-12-25T17:24:51.977Z,5.50
2022-12-25T17:27:20.145Z,9.52
2022-12-25T17:29:48.692Z,5.72
2022-12-25T17:32:18.952Z,5.10
2022-12-25T17:34:48.113Z,4.15
2022-12-25T17:37:15.845Z,3.90
2022-12-25T17:39:43.771Z,7.68
2022-12-25T17:42:11.580Z,5.97
2022-12-25T17:44:39.628Z,7.00
2022-12-25T17:47:07.705Z,7.15
2022-12-25T17:49:35.867Z,5.82
2022-12-25T17:52:05.438Z,6.25
2022-12-25T17:54:33.493Z,5.15
2022-12-25T17:57:01.350Z,6.50
2022-12-25T17:59:29.663Z,5.20
2022-12-25T18:01:57.996Z,4.03
2022-12-25T18:04:25.893Z,7.88
2022-12-25T18:06:54.110Z,4.85
2022-12-25T18:09:23.385Z,6.75
2022-12-25T18:11:51.296Z,6.88
